createdAt,value
2023-11-14T12:44:30.824Z,97485.31
2023-11-14T12:49:33.528Z,97477.22
2023-11-14T12:54:35.462Z,97446.44
2023-11-14T12:59:37.187Z,97479.41
2023-11-14T13:04:39.323Z,97505.28
2023-11-14T13:09:41.356Z,97475.84
2023-11-14T13:14:43.383Z,97493.84
2023-11-14T13:19:45.963Z,97478.91
2023-11-14T13:24:48.025Z,97467.84
2023-11-14T13:29:49.694Z,97450.03
2023-11-14T13:34:53.305Z,97446.63
2023-11-14T13:40:07.471Z,97423.25
2023-11-14T13:45:10.631Z,97439.50
2023-11-14T13:50:14.612Z,97439.50
2023-11-14T13:55:19.298Z,97435.16
2023-11-14T14:00:23.770Z,97432.44
2023-11-14T14:05:25.846Z,97411.81
2023-11-14T14:10:28.265Z,97400.03
2023-11-14T14:15:30.257Z,97395.59
2023-11-14T14:20:32.434Z,97406.03
2023-11-14T14:25:35.599Z,97406.47
2023-11-14T14:30:37.359Z,97396.03
2023-11-14T14:35:39.090Z,97403.22
2023-11-14T14:40:41.430Z,97413.13
2023-11-14T14:45:47.918Z,97429.50
2023-11-14T14:50:51.943Z,97437.97
2023-11-14T14:55:54.169Z,97445.22
2023-11-14T15:00:56.022Z,97425.88
2023-11-14T15:06:01.100Z,97394.09
2023-11-14T15:11:05.263Z,97415.16
2023-11-14T15:16:09.373Z,97405.34
2023-11-14T15:21:12.131Z,97422.47
2023-11-14T15:26:14.221Z,97426.31
2023-11-14T15:31:16.034Z,97443.88
2023-11-14T15:36:19.958Z,97435.81
2023-11-14T15:41:22.383Z,97425.13
2023-11-14T15:46:25.662Z,97426.75
2023-11-14T15:51:27.921Z,97449.41
2023-11-14T15:56:29.663Z,97456.47
2023-11-14T16:01:31.488Z,97480.19
2023-11-14T16:06:33.169Z,97480.69
2023-11-14T16:11:34.868Z,97482.28
2023-11-14T16:16:36.801Z,97488.09
2023-11-14T16:21:38.985Z,97474.72
2023-11-14T16:26:40.789Z,97453.38
2023-11-14T16:31:44.284Z,97426.94
2023-11-14T16:36:46.001Z,97445.84
2023-11-14T16:41:47.885Z,97462.25
2023-11-14T16:46:49.679Z,97483.28
2023-11-14T16:51:54.304Z,97471.78
2023-11-14T16:56:56.380Z,97514.44
2023-11-14T17:01:58.919Z,97506.66
2023-11-14T17:07:02.480Z,97492.59
2023-11-14T17:12:04.651Z,97492.34
2023-11-14T17:17:07.633Z,97456.91
2023-11-14T17:22:10.395Z,97453.22
2023-11-14T17:27:14.193Z,97456.06
2023-11-14T17:32:16.231Z,97461.09
2023-11-14T17:37:17.939Z,97423.97
2023-11-14T17:42:19.895Z,97421.16
2023-11-14T17:47:22.938Z,97440.72
2023-11-14T17:52:26.417Z,97405.13
2023-11-14T17:57:30.572Z,97415.41
2023-11-14T18:02:35.626Z,97388.25
2023-11-14T18:07:38.782Z,97374.50
2023-11-14T18:12:41.208Z,97411.91
2023-11-14T18:17:45.222Z,97388.53
2023-11-14T18:22:48.196Z,97353.38
2023-11-14T18:27:50.305Z,97328.44
2023-11-14T18:32:52.065Z,97341.53
2023-11-14T18:37:56.435Z,97321.88
2023-11-14T18:42:58.110Z,97308.06
2023-11-14T18:48:00.702Z,97277.19
2023-11-14T18:53:02.463Z,97346.63
2023-11-14T18:58:04.271Z,97337.66
2023-11-14T19:03:08.309Z,97348.34
2023-11-14T19:08:10.941Z,97295.47
2023-11-14T19:13:12.747Z,97250.47
2023-11-14T19:18:18.954Z,97273.78
2023-11-14T19:23:41.813Z,97303.44
2023-11-14T19:28:46.159Z,97269.31
2023-11-14T19:33:49.952Z,97278.56
2023-11-14T19:38:52.573Z,97277.44
2023-11-14T19:43:55.358Z,97266.06
2023-11-14T19:49:00.675Z,97266.78
2023-11-14T19:54:05.119Z,97278.59
2023-11-14T19:59:14.956Z,97266.66
2023-11-14T20:04:19.064Z,97236.63
2023-11-14T20:09:20.874Z,97232.44
2023-11-14T20:14:23.128Z,97218.97
2023-11-14T20:19:24.852Z,97266.75
2023-11-14T20:24:26.501Z,97254.13
2023-11-14T20:29:28.690Z,97252.03
2023-11-14T20:34:30.405Z,97210.16
2023-11-14T20:39:34.151Z,97207.91
2023-11-14T20:44:37.337Z,97218.97
2023-11-14T20:49:40.272Z,97220.44
2023-11-14T20:54:42.537Z,97202.31
2023-11-14T20:59:44.828Z,97182.84
2023-11-14T21:04:46.619Z,97173.34
2023-11-14T21:09:48.308Z,97189.97
2023-11-14T21:14:50.911Z,97171.56
2023-11-14T21:19:53.322Z,97194.34
2023-11-14T21:24:55.621Z,97193.47
2023-11-14T21:29:57.494Z,97172.66
